sensor_id;sensor_type;location;lat;lon;timestamp;P1;durP1;ratioP1;P2;durP2;ratioP2
51836;SDS011;38941;53.254;6.600;2023-10-19T00:01:10;16.45;;;7.47;;
51836;SDS011;38941;53.254;6.600;2023-10-19T00:03:12;14.38;;;8.40;;
51836;SDS011;38941;53.254;6.600;2023-10-19T00:05:13;15.23;;;7.90;;
51836;SDS011;38941;53.254;6.600;2023-10-19T00:07:15;14.07;;;7.55;;
51836;SDS011;38941;53.254;6.600;2023-10-19T00:09:16;17.63;;;8.02;;
51836;SDS011;38941;53.254;6.600;2023-10-19T00:11:17;15.77;;;8.90;;
51836;SDS011;38941;53.254;6.600;2023-10-19T00:13:22;16.95;;;8.77;;
51836;SDS011;38941;53.254;6.600;2023-10-19T00:15:23;14.13;;;8.00;;
51836;SDS011;38941;53.254;6.600;2023-10-19T00:17:26;16.85;;;9.25;;
51836;SDS011;38941;53.254;6.600;2023-10-19T00:19:28;14.43;;;8.27;;
51836;SDS011;38941;53.254;6.600;2023-10-19T00:21:30;15.50;;;7.97;;
51836;SDS011;38941;53.254;6.600;2023-10-19T00:23:43;14.43;;;8.55;;
51836;SDS011;38941;53.254;6.600;2023-10-19T00:25:47;15.32;;;8.40;;
51836;SDS011;38941;53.254;6.600;2023-10-19T00:27:54;18.98;;;10.23;;
51836;SDS011;38941;53.254;6.600;2023-10-19T00:29:55;19.77;;;8.32;;
51836;SDS011;38941;53.254;6.600;2023-10-19T00:32:06;16.63;;;8.07;;
51836;SDS011;38941;53.254;6.600;2023-10-19T00:34:13;17.55;;;9.05;;
51836;SDS011;38941;53.254;6.600;2023-10-19T00:36:14;15.88;;;8.32;;
51836;SDS011;38941;53.254;6.600;2023-10-19T00:38:14;21.58;;;8.52;;
51836;SDS011;38941;53.254;6.600;2023-10-19T00:40:27;15.27;;;7.45;;
51836;SDS011;38941;53.254;6.600;2023-10-19T00:42:35;14.52;;;8.35;;
51836;SDS011;38941;53.254;6.600;2023-10-19T00:44:39;18.75;;;9.55;;
51836;SDS011;38941;53.254;6.600;2023-10-19T00:46:43;15.38;;;8.48;;
51836;SDS011;38941;53.254;6.600;2023-10-19T00:48:56;19.33;;;8.70;;
51836;SDS011;38941;53.254;6.600;2023-10-19T00:50:59;14.82;;;8.32;;
51836;SDS011;38941;53.254;6.600;2023-10-19T00:53:09;17.17;;;9.93;;
51836;SDS011;38941;53.254;6.600;2023-10-19T00:55:13;15.25;;;8.88;;
51836;SDS011;38941;53.254;6.600;2023-10-19T00:57:15;16.13;;;8.63;;
51836;SDS011;38941;53.254;6.600;2023-10-19T00:59:19;13.68;;;7.88;;
51836;SDS011;38941;53.254;6.600;2023-10-19T01:01:48;17.33;;;9.35;;
51836;SDS011;38941;53.254;6.600;2023-10-19T01:03:53;19.42;;;9.00;;
51836;SDS011;38941;53.254;6.600;2023-10-19T01:05:56;14.95;;;8.55;;
51836;SDS011;38941;53.254;6.600;2023-10-19T01:07:58;16.50;;;8.85;;
51836;SDS011;38941;53.254;6.600;2023-10-19T01:10:02;17.33;;;8.75;;
51836;SDS011;38941;53.254;6.600;2023-10-19T01:12:06;20.25;;;8.88;;
51836;SDS011;38941;53.254;6.600;2023-10-19T01:14:25;17.38;;;8.55;;
51836;SDS011;38941;53.254;6.600;2023-10-19T01:16:28;16.77;;;9.20;;
51836;SDS011;38941;53.254;6.600;2023-10-19T01:18:28;20.13;;;8.63;;
51836;SDS011;38941;53.254;6.600;2023-10-19T01:20:32;16.75;;;9.00;;
51836;SDS011;38941;53.254;6.600;2023-10-19T01:22:53;17.90;;;8.65;;
51836;SDS011;38941;53.254;6.600;2023-10-19T01:25:10;16.83;;;9.02;;
51836;SDS011;38941;53.254;6.600;2023-10-19T01:27:12;14.13;;;8.32;;
51836;SDS011;38941;53.254;6.600;2023-10-19T01:29:14;18.15;;;8.77;;
51836;SDS011;38941;53.254;6.600;2023-10-19T01:31:26;15.68;;;8.60;;
51836;SDS011;38941;53.254;6.600;2023-10-19T01:33:29;16.50;;;8.32;;
51836;SDS011;38941;53.254;6.600;2023-10-19T01:35:31;16.33;;;9.35;;
51836;SDS011;38941;53.254;6.600;2023-10-19T01:37:51;16.98;;;10.13;;
51836;SDS011;38941;53.254;6.600;2023-10-19T01:39:52;20.10;;;9.23;;
51836;SDS011;38941;53.254;6.600;2023-10-19T01:41:53;22.20;;;9.82;;
51836;SDS011;38941;53.254;6.600;2023-10-19T01:43:54;19.73;;;9.48;;
51836;SDS011;38941;53.254;6.600;2023-10-19T01:45:55;17.08;;;9.48;;
51836;SDS011;38941;53.254;6.600;2023-10-19T01:47:56;18.75;;;9.32;;
51836;SDS011;38941;53.254;6.600;2023-10-19T01:49:59;18.77;;;9.68;;
51836;SDS011;38941;53.254;6.600;2023-10-19T01:52:00;18.33;;;10.35;;
51836;SDS011;38941;53.254;6.600;2023-10-19T01:54:04;17.85;;;9.65;;
51836;SDS011;38941;53.254;6.600;2023-10-19T01:56:09;16.92;;;8.77;;
51836;SDS011;38941;53.254;6.600;2023-10-19T01:58:11;17.52;;;9.73;;
51836;SDS011;38941;53.254;6.600;2023-10-19T02:00:11;18.05;;;9.55;;
51836;SDS011;38941;53.254;6.600;2023-10-19T02:02:22;21.20;;;9.45;;
51836;SDS011;38941;53.254;6.600;2023-10-19T02:04:23;17.00;;;9.82;;
51836;SDS011;38941;53.254;6.600;2023-10-19T02:06:26;17.20;;;9.18;;
51836;SDS011;38941;53.254;6.600;2023-10-19T02:08:34;18.98;;;9.30;;
51836;SDS011;38941;53.254;6.600;2023-10-19T02:10:38;16.20;;;9.95;;
51836;SDS011;38941;53.254;6.600;2023-10-19T02:12:42;16.60;;;9.35;;
51836;SDS011;38941;53.254;6.600;2023-10-19T02:14:42;14.32;;;9.00;;
51836;SDS011;38941;53.254;6.600;2023-10-19T02:16:44;14.88;;;8.88;;
51836;SDS011;38941;53.254;6.600;2023-10-19T02:18:52;17.08;;;9.55;;
51836;SDS011;38941;53.254;6.600;2023-10-19T02:20:53;14.35;;;9.05;;
51836;SDS011;38941;53.254;6.600;2023-10-19T02:22:57;17.15;;;9.23;;
51836;SDS011;38941;53.254;6.600;2023-10-19T02:24:58;19.40;;;9.43;;
51836;SDS011;38941;53.254;6.600;2023-10-19T02:26:58;15.52;;;8.50;;
51836;SDS011;38941;53.254;6.600;2023-10-19T02:29:01;16.55;;;8.93;;
51836;SDS011;38941;53.254;6.600;2023-10-19T02:31:07;17.20;;;9.57;;
51836;SDS011;38941;53.254;6.600;2023-10-19T02:33:15;15.35;;;8.63;;
51836;SDS011;38941;53.254;6.600;2023-10-19T02:35:16;15.82;;;9.23;;
51836;SDS011;38941;53.254;6.600;2023-10-19T02:37:18;14.55;;;7.95;;
51836;SDS011;38941;53.254;6.600;2023-10-19T02:39:19;17.38;;;9.43;;
51836;SDS011;38941;53.254;6.600;2023-10-19T02:41:20;14.02;;;8.82;;
51836;SDS011;38941;53.254;6.600;2023-10-19T02:43:21;15.90;;;8.65;;
51836;SDS011;38941;53.254;6.600;2023-10-19T02:45:24;15.25;;;9.00;;
51836;SDS011;38941;53.254;6.600;2023-10-19T02:47:24;16.92;;;8.80;;
51836;SDS011;38941;53.254;6.600;2023-10-19T02:49:29;14.55;;;8.07;;
51836;SDS011;38941;53.254;6.600;2023-10-19T02:51:31;15.10;;;8.60;;
51836;SDS011;38941;53.254;6.600;2023-10-19T02:53:32;14.00;;;7.60;;
51836;SDS011;38941;53.254;6.600;2023-10-19T02:55:33;16.17;;;8.75;;
51836;SDS011;38941;53.254;6.600;2023-10-19T02:57:33;12.65;;;7.50;;
51836;SDS011;38941;53.254;6.600;2023-10-19T02:59:34;15.50;;;8.43;;
51836;SDS011;38941;53.254;6.600;2023-10-19T03:01:35;12.68;;;7.50;;
51836;SDS011;38941;53.254;6.600;2023-10-19T03:03:36;14.23;;;7.95;;
51836;SDS011;38941;53.254;6.600;2023-10-19T03:05:37;13.05;;;7.22;;
51836;SDS011;38941;53.254;6.600;2023-10-19T03:07:40;14.45;;;7.15;;
51836;SDS011;38941;53.254;6.600;2023-10-19T03:09:44;13.75;;;7.85;;
51836;SDS011;38941;53.254;6.600;2023-10-19T03:11:54;12.35;;;6.95;;
51836;SDS011;38941;53.254;6.600;2023-10-19T03:14:00;14.00;;;7.45;;
51836;SDS011;38941;53.254;6.600;2023-10-19T03:16:05;12.77;;;7.57;;
51836;SDS011;38941;53.254;6.600;2023-10-19T03:18:09;11.52;;;6.60;;
51836;SDS011;38941;53.254;6.600;2023-10-19T03:20:10;13.25;;;7.18;;
51836;SDS011;38941;53.254;6.600;2023-10-19T03:22:11;13.77;;;7.75;;
51836;SDS011;38941;53.254;6.600;2023-10-19T03:24:12;14.48;;;7.57;;
51836;SDS011;38941;53.254;6.600;2023-10-19T03:26:14;10.90;;;7.15;;
51836;SDS011;38941;53.254;6.600;2023-10-19T03:28:30;12.77;;;7.15;;
51836;SDS011;38941;53.254;6.600;2023-10-19T03:30:36;12.57;;;6.90;;
51836;SDS011;38941;53.254;6.600;2023-10-19T03:32:40;11.32;;;7.13;;
51836;SDS011;38941;53.254;6.600;2023-10-19T03:34:41;13.75;;;6.75;;
51836;SDS011;38941;53.254;6.600;2023-10-19T03:36:48;11.88;;;7.55;;
51836;SDS011;38941;53.254;6.600;2023-10-19T03:38:49;11.50;;;6.43;;
51836;SDS011;38941;53.254;6.600;2023-10-19T03:40:52;12.10;;;6.93;;
51836;SDS011;38941;53.254;6.600;2023-10-19T03:42:59;12.55;;;6.47;;
51836;SDS011;38941;53.254;6.600;2023-10-19T03:45:07;11.35;;;6.50;;
51836;SDS011;38941;53.254;6.600;2023-10-19T03:47:13;11.52;;;6.90;;
51836;SDS011;38941;53.254;6.600;2023-10-19T03:49:34;10.05;;;5.78;;
51836;SDS011;38941;53.254;6.600;2023-10-19T03:51:37;9.27;;;6.13;;
51836;SDS011;38941;53.254;6.600;2023-10-19T03:53:49;8.82;;;5.60;;
51836;SDS011;38941;53.254;6.600;2023-10-19T03:55:54;10.38;;;6.05;;
51836;SDS011;38941;53.254;6.600;2023-10-19T03:57:55;12.98;;;5.50;;
51836;SDS011;38941;53.254;6.600;2023-10-19T03:59:56;11.65;;;5.70;;
51836;SDS011;38941;53.254;6.600;2023-10-19T04:01:57;10.40;;;5.65;;
51836;SDS011;38941;53.254;6.600;2023-10-19T04:03:59;8.20;;;5.38;;
51836;SDS011;38941;53.254;6.600;2023-10-19T04:06:01;11.43;;;6.07;;
51836;SDS011;38941;53.254;6.600;2023-10-19T04:08:05;9.48;;;5.57;;
51836;SDS011;38941;53.254;6.600;2023-10-19T04:12:29;8.60;;;5.20;;
51836;SDS011;38941;53.254;6.600;2023-10-19T04:14:31;10.02;;;6.38;;
51836;SDS011;38941;53.254;6.600;2023-10-19T04:16:31;9.60;;;5.75;;
51836;SDS011;38941;53.254;6.600;2023-10-19T04:18:37;8.95;;;5.53;;
51836;SDS011;38941;53.254;6.600;2023-10-19T04:20:38;8.88;;;5.45;;
51836;SDS011;38941;53.254;6.600;2023-10-19T04:22:55;10.93;;;5.75;;
51836;SDS011;38941;53.254;6.600;2023-10-19T04:25:06;9.43;;;5.32;;
51836;SDS011;38941;53.254;6.600;2023-10-19T04:27:08;8.43;;;5.13;;
51836;SDS011;38941;53.254;6.600;2023-10-19T04:29:08;7.60;;;4.90;;
51836;SDS011;38941;53.254;6.600;2023-10-19T04:31:13;10.27;;;5.75;;
51836;SDS011;38941;53.254;6.600;2023-10-19T04:33:15;7.65;;;5.20;;
51836;SDS011;38941;53.254;6.600;2023-10-19T04:35:16;8.73;;;5.20;;
51836;SDS011;38941;53.254;6.600;2023-10-19T04:37:24;6.88;;;4.63;;
51836;SDS011;38941;53.254;6.600;2023-10-19T04:39:25;8.05;;;4.35;;
51836;SDS011;38941;53.254;6.600;2023-10-19T04:41:25;8.13;;;4.60;;
51836;SDS011;38941;53.254;6.600;2023-10-19T04:43:29;7.07;;;4.55;;
51836;SDS011;38941;53.254;6.600;2023-10-19T04:45:29;6.47;;;4.47;;
51836;SDS011;38941;53.254;6.600;2023-10-19T04:47:31;6.93;;;4.38;;
51836;SDS011;38941;53.254;6.600;2023-10-19T04:49:35;6.28;;;3.80;;
51836;SDS011;38941;53.254;6.600;2023-10-19T04:51:36;7.00;;;4.65;;
51836;SDS011;38941;53.254;6.600;2023-10-19T04:53:39;6.03;;;4.03;;
51836;SDS011;38941;53.254;6.600;2023-10-19T04:55:39;6.28;;;4.30;;
51836;SDS011;38941;53.254;6.600;2023-10-19T04:57:41;6.75;;;4.53;;
51836;SDS011;38941;53.254;6.600;2023-10-19T04:59:41;6.90;;;4.22;;
51836;SDS011;38941;53.254;6.600;2023-10-19T05:01:46;7.25;;;4.43;;
51836;SDS011;38941;53.254;6.600;2023-10-19T05:03:47;6.95;;;4.05;;
51836;SDS011;38941;53.254;6.600;2023-10-19T05:05:47;8.23;;;5.22;;
51836;SDS011;38941;53.254;6.600;2023-10-19T05:07:49;7.00;;;4.47;;
51836;SDS011;38941;53.254;6.600;2023-10-19T05:09:50;7.03;;;4.45;;
51836;SDS011;38941;53.254;6.600;2023-10-19T05:11:50;6.63;;;4.07;;
51836;SDS011;38941;53.254;6.600;2023-10-19T05:13:52;6.05;;;3.97;;
51836;SDS011;38941;53.254;6.600;2023-10-19T05:15:56;6.93;;;4.25;;
51836;SDS011;38941;53.254;6.600;2023-10-19T05:17:58;8.52;;;4.43;;
51836;SDS011;38941;53.254;6.600;2023-10-19T05:20:00;7.07;;;4.55;;
51836;SDS011;38941;53.254;6.600;2023-10-19T05:22:02;6.30;;;3.95;;
51836;SDS011;38941;53.254;6.600;2023-10-19T05:24:06;7.45;;;4.30;;
51836;SDS011;38941;53.254;6.600;2023-10-19T05:26:07;6.20;;;3.65;;
51836;SDS011;38941;53.254;6.600;2023-10-19T05:28:08;5.68;;;3.67;;
51836;SDS011;38941;53.254;6.600;2023-10-19T05:30:09;6.18;;;3.90;;
51836;SDS011;38941;53.254;6.600;2023-10-19T05:32:10;5.82;;;3.40;;
51836;SDS011;38941;53.254;6.600;2023-10-19T05:34:11;6.13;;;3.50;;
51836;SDS011;38941;53.254;6.600;2023-10-19T05:36:12;5.20;;;3.42;;
51836;SDS011;38941;53.254;6.600;2023-10-19T05:38:14;5.88;;;3.50;;
51836;SDS011;38941;53.254;6.600;2023-10-19T05:40:16;5.55;;;3.45;;
51836;SDS011;38941;53.254;6.600;2023-10-19T05:42:18;4.50;;;3.03;;
51836;SDS011;38941;53.254;6.600;2023-10-19T05:44:18;4.63;;;2.60;;
51836;SDS011;38941;53.254;6.600;2023-10-19T05:46:19;4.55;;;2.92;;
51836;SDS011;38941;53.254;6.600;2023-10-19T05:48:22;3.72;;;2.35;;
51836;SDS011;38941;53.254;6.600;2023-10-19T05:50:25;4.13;;;2.47;;
51836;SDS011;38941;53.254;6.600;2023-10-19T05:52:28;4.45;;;2.67;;
51836;SDS011;38941;53.254;6.600;2023-10-19T05:54:29;3.38;;;2.30;;
51836;SDS011;38941;53.254;6.600;2023-10-19T05:56:30;4.13;;;2.28;;
51836;SDS011;38941;53.254;6.600;2023-10-19T05:58:31;4.25;;;2.58;;
51836;SDS011;38941;53.254;6.600;2023-10-19T06:00:32;4.13;;;2.58;;
51836;SDS011;38941;53.254;6.600;2023-10-19T06:02:33;4.15;;;2.55;;
51836;SDS011;38941;53.254;6.600;2023-10-19T06:04:36;3.50;;;2.28;;
51836;SDS011;38941;53.254;6.600;2023-10-19T06:06:37;3.55;;;2.30;;
51836;SDS011;38941;53.254;6.600;2023-10-19T06:08:39;3.50;;;2.20;;
51836;SDS011;38941;53.254;6.600;2023-10-19T06:10:41;3.15;;;2.15;;
51836;SDS011;38941;53.254;6.600;2023-10-19T06:12:43;3.15;;;2.22;;
51836;SDS011;38941;53.254;6.600;2023-10-19T06:14:44;3.78;;;2.72;;
51836;SDS011;38941;53.254;6.600;2023-10-19T06:16:45;2.47;;;1.90;;
51836;SDS011;38941;53.254;6.600;2023-10-19T06:18:46;3.17;;;2.08;;
51836;SDS011;38941;53.254;6.600;2023-10-19T06:20:46;3.53;;;2.40;;
51836;SDS011;38941;53.254;6.600;2023-10-19T06:22:51;3.80;;;2.22;;
51836;SDS011;38941;53.254;6.600;2023-10-19T06:24:57;2.80;;;1.67;;
51836;SDS011;38941;53.254;6.600;2023-10-19T06:26:58;2.67;;;1.75;;
51836;SDS011;38941;53.254;6.600;2023-10-19T06:28:59;4.55;;;2.50;;
51836;SDS011;38941;53.254;6.600;2023-10-19T06:30:59;3.38;;;2.13;;
51836;SDS011;38941;53.254;6.600;2023-10-19T06:33:01;3.60;;;1.95;;
51836;SDS011;38941;53.254;6.600;2023-10-19T06:35:03;3.63;;;2.00;;
51836;SDS011;38941;53.254;6.600;2023-10-19T06:37:05;2.70;;;1.75;;
51836;SDS011;38941;53.254;6.600;2023-10-19T06:39:09;3.30;;;2.10;;
51836;SDS011;38941;53.254;6.600;2023-10-19T06:41:13;2.63;;;1.70;;
51836;SDS011;38941;53.254;6.600;2023-10-19T06:43:15;2.60;;;1.50;;
51836;SDS011;38941;53.254;6.600;2023-10-19T06:45:16;2.97;;;2.10;;
51836;SDS011;38941;53.254;6.600;2023-10-19T06:47:20;2.00;;;1.70;;
51836;SDS011;38941;53.254;6.600;2023-10-19T06:49:20;2.45;;;1.65;;
51836;SDS011;38941;53.254;6.600;2023-10-19T06:51:21;2.75;;;1.83;;
51836;SDS011;38941;53.254;6.600;2023-10-19T06:53:22;3.03;;;1.83;;
51836;SDS011;38941;53.254;6.600;2023-10-19T06:55:23;2.80;;;2.13;;
51836;SDS011;38941;53.254;6.600;2023-10-19T06:57:23;4.28;;;1.98;;
51836;SDS011;38941;53.254;6.600;2023-10-19T06:59:24;2.58;;;1.73;;
51836;SDS011;38941;53.254;6.600;2023-10-19T07:01:25;2.70;;;1.77;;
51836;SDS011;38941;53.254;6.600;2023-10-19T07:03:29;2.85;;;1.88;;
51836;SDS011;38941;53.254;6.600;2023-10-19T07:05:30;2.45;;;1.63;;
51836;SDS011;38941;53.254;6.600;2023-10-19T07:07:31;2.17;;;1.67;;
51836;SDS011;38941;53.254;6.600;2023-10-19T07:09:32;3.00;;;1.83;;
51836;SDS011;38941;53.254;6.600;2023-10-19T07:11:34;2.97;;;1.77;;
51836;SDS011;38941;53.254;6.600;2023-10-19T07:13:35;2.60;;;1.67;;
51836;SDS011;38941;53.254;6.600;2023-10-19T07:15:36;2.67;;;1.77;;
51836;SDS011;38941;53.254;6.600;2023-10-19T07:17:37;2.85;;;1.80;;
51836;SDS011;38941;53.254;6.600;2023-10-19T07:19:43;2.90;;;1.60;;
51836;SDS011;38941;53.254;6.600;2023-10-19T07:21:45;3.83;;;1.90;;
51836;SDS011;38941;53.254;6.600;2023-10-19T07:23:50;2.78;;;1.65;;
51836;SDS011;38941;53.254;6.600;2023-10-19T07:25:53;1.67;;;1.38;;
51836;SDS011;38941;53.254;6.600;2023-10-19T07:27:57;2.88;;;1.50;;
51836;SDS011;38941;53.254;6.600;2023-10-19T07:30:02;1.38;;;1.23;;
51836;SDS011;38941;53.254;6.600;2023-10-19T07:32:06;2.05;;;1.48;;
51836;SDS011;38941;53.254;6.600;2023-10-19T07:34:11;1.58;;;1.30;;
51836;SDS011;38941;53.254;6.600;2023-10-19T07:36:16;1.73;;;1.20;;
51836;SDS011;38941;53.254;6.600;2023-10-19T07:38:18;1.60;;;1.35;;
51836;SDS011;38941;53.254;6.600;2023-10-19T07:40:24;3.47;;;1.50;;
51836;SDS011;38941;53.254;6.600;2023-10-19T07:42:26;3.17;;;1.70;;
51836;SDS011;38941;53.254;6.600;2023-10-19T07:44:27;2.15;;;1.60;;
51836;SDS011;38941;53.254;6.600;2023-10-19T07:46:30;2.63;;;1.60;;
51836;SDS011;38941;53.254;6.600;2023-10-19T07:48:31;1.85;;;1.70;;
51836;SDS011;38941;53.254;6.600;2023-10-19T07:50:33;3.65;;;1.35;;
51836;SDS011;38941;53.254;6.600;2023-10-19T07:52:35;2.90;;;1.60;;
51836;SDS011;38941;53.254;6.600;2023-10-19T07:54:36;2.80;;;1.85;;
51836;SDS011;38941;53.254;6.600;2023-10-19T07:56:37;1.48;;;1.23;;
51836;SDS011;38941;53.254;6.600;2023-10-19T07:58:39;2.95;;;1.92;;
51836;SDS011;38941;53.254;6.600;2023-10-19T08:00:41;2.38;;;1.55;;
51836;SDS011;38941;53.254;6.600;2023-10-19T08:02:42;1.75;;;1.40;;
51836;SDS011;38941;53.254;6.600;2023-10-19T08:04:46;3.00;;;2.10;;
51836;SDS011;38941;53.254;6.600;2023-10-19T08:06:47;5.07;;;3.10;;
51836;SDS011;38941;53.254;6.600;2023-10-19T08:08:48;7.07;;;4.72;;
51836;SDS011;38941;53.254;6.600;2023-10-19T08:10:48;3.58;;;2.22;;
51836;SDS011;38941;53.254;6.600;2023-10-19T08:12:49;1.70;;;1.60;;
51836;SDS011;38941;53.254;6.600;2023-10-19T08:14:55;1.80;;;1.42;;
51836;SDS011;38941;53.254;6.600;2023-10-19T08:16:57;9.25;;;3.85;;
51836;SDS011;38941;53.254;6.600;2023-10-19T08:18:57;2.90;;;2.10;;
51836;SDS011;38941;53.254;6.600;2023-10-19T08:20:58;2.65;;;1.85;;
51836;SDS011;38941;53.254;6.600;2023-10-19T08:22:59;4.15;;;2.60;;
51836;SDS011;38941;53.254;6.600;2023-10-19T08:25:03;47.97;;;15.25;;
51836;SDS011;38941;53.254;6.600;2023-10-19T08:27:11;15.85;;;5.28;;
51836;SDS011;38941;53.254;6.600;2023-10-19T08:29:13;42.15;;;17.98;;
51836;SDS011;38941;53.254;6.600;2023-10-19T08:31:14;40.00;;;14.68;;
51836;SDS011;38941;53.254;6.600;2023-10-19T08:33:14;13.55;;;5.85;;
51836;SDS011;38941;53.254;6.600;2023-10-19T08:35:15;8.23;;;4.38;;
51836;SDS011;38941;53.254;6.600;2023-10-19T08:37:26;23.60;;;9.60;;
51836;SDS011;38941;53.254;6.600;2023-10-19T08:39:26;3.30;;;2.38;;
51836;SDS011;38941;53.254;6.600;2023-10-19T08:41:27;2.15;;;1.83;;
51836;SDS011;38941;53.254;6.600;2023-10-19T08:43:28;7.28;;;3.78;;
51836;SDS011;38941;53.254;6.600;2023-10-19T08:45:29;2.97;;;2.22;;
51836;SDS011;38941;53.254;6.600;2023-10-19T08:47:30;5.47;;;2.15;;
51836;SDS011;38941;53.254;6.600;2023-10-19T08:49:31;2.85;;;2.10;;
51836;SDS011;38941;53.254;6.600;2023-10-19T08:51:32;3.03;;;2.45;;
51836;SDS011;38941;53.254;6.600;2023-10-19T08:53:34;3.35;;;2.42;;
51836;SDS011;38941;53.254;6.600;2023-10-19T08:55:41;4.03;;;2.60;;
51836;SDS011;38941;53.254;6.600;2023-10-19T08:57:44;6.60;;;2.53;;
51836;SDS011;38941;53.254;6.600;2023-10-19T08:59:48;3.10;;;2.45;;
51836;SDS011;38941;53.254;6.600;2023-10-19T09:01:49;3.55;;;2.28;;
51836;SDS011;38941;53.254;6.600;2023-10-19T09:03:50;4.75;;;2.72;;
51836;SDS011;38941;53.254;6.600;2023-10-19T09:05:51;3.15;;;2.25;;
51836;SDS011;38941;53.254;6.600;2023-10-19T09:07:53;3.90;;;2.33;;
51836;SDS011;38941;53.254;6.600;2023-10-19T09:09:57;3.65;;;2.53;;
51836;SDS011;38941;53.254;6.600;2023-10-19T09:11:57;3.40;;;2.28;;
51836;SDS011;38941;53.254;6.600;2023-10-19T09:13:58;6.22;;;3.95;;
51836;SDS011;38941;53.254;6.600;2023-10-19T09:16:04;15.63;;;6.75;;
51836;SDS011;38941;53.254;6.600;2023-10-19T09:18:15;5.25;;;3.70;;
51836;SDS011;38941;53.254;6.600;2023-10-19T09:20:17;10.10;;;3.95;;
51836;SDS011;38941;53.254;6.600;2023-10-19T09:22:30;8.52;;;3.97;;
51836;SDS011;38941;53.254;6.600;2023-10-19T09:24:37;4.10;;;2.78;;
51836;SDS011;38941;53.254;6.600;2023-10-19T09:26:38;8.52;;;4.13;;
51836;SDS011;38941;53.254;6.600;2023-10-19T09:28:41;18.50;;;8.65;;
51836;SDS011;38941;53.254;6.600;2023-10-19T09:30:42;3.67;;;2.45;;
51836;SDS011;38941;53.254;6.600;2023-10-19T09:32:43;8.27;;;4.35;;
51836;SDS011;38941;53.254;6.600;2023-10-19T09:34:49;3.05;;;2.17;;
51836;SDS011;38941;53.254;6.600;2023-10-19T09:36:52;9.23;;;6.18;;
51836;SDS011;38941;53.254;6.600;2023-10-19T09:38:53;4.03;;;2.92;;
51836;SDS011;38941;53.254;6.600;2023-10-19T09:40:57;3.60;;;2.70;;
51836;SDS011;38941;53.254;6.600;2023-10-19T09:43:03;3.55;;;2.70;;
51836;SDS011;38941;53.254;6.600;2023-10-19T09:45:08;4.88;;;2.20;;
51836;SDS011;38941;53.254;6.600;2023-10-19T09:47:12;3.40;;;2.45;;
51836;SDS011;38941;53.254;6.600;2023-10-19T09:49:35;4.38;;;3.67;;
51836;SDS011;38941;53.254;6.600;2023-10-19T09:51:36;2.67;;;2.15;;
51836;SDS011;38941;53.254;6.600;2023-10-19T09:53:40;4.68;;;2.30;;
51836;SDS011;38941;53.254;6.600;2023-10-19T09:55:42;5.78;;;3.00;;
51836;SDS011;38941;53.254;6.600;2023-10-19T09:57:48;3.55;;;2.53;;
51836;SDS011;38941;53.254;6.600;2023-10-19T10:00:02;3.00;;;2.40;;
51836;SDS011;38941;53.254;6.600;2023-10-19T10:02:13;3.28;;;2.40;;
51836;SDS011;38941;53.254;6.600;2023-10-19T10:08:55;4.90;;;3.10;;
51836;SDS011;38941;53.254;6.600;2023-10-19T10:10:56;4.57;;;3.05;;
51836;SDS011;38941;53.254;6.600;2023-10-19T10:13:16;5.40;;;3.13;;
51836;SDS011;38941;53.254;6.600;2023-10-19T10:15:38;7.07;;;4.43;;
51836;SDS011;38941;53.254;6.600;2023-10-19T10:17:40;4.53;;;3.00;;
51836;SDS011;38941;53.254;6.600;2023-10-19T10:19:41;4.38;;;2.85;;
51836;SDS011;38941;53.254;6.600;2023-10-19T10:21:42;3.95;;;2.80;;
51836;SDS011;38941;53.254;6.600;2023-10-19T10:24:05;3.95;;;2.95;;
51836;SDS011;38941;53.254;6.600;2023-10-19T10:26:06;3.80;;;2.92;;
51836;SDS011;38941;53.254;6.600;2023-10-19T10:28:11;3.95;;;2.97;;
51836;SDS011;38941;53.254;6.600;2023-10-19T10:30:14;3.45;;;2.53;;
51836;SDS011;38941;53.254;6.600;2023-10-19T10:32:38;6.15;;;3.10;;
51836;SDS011;38941;53.254;6.600;2023-10-19T10:34:45;5.45;;;2.95;;
51836;SDS011;38941;53.254;6.600;2023-10-19T10:37:02;4.07;;;3.30;;
51836;SDS011;38941;53.254;6.600;2023-10-19T10:39:03;5.32;;;3.17;;
51836;SDS011;38941;53.254;6.600;2023-10-19T10:41:25;5.80;;;2.83;;
51836;SDS011;38941;53.254;6.600;2023-10-19T10:43:29;4.20;;;3.13;;
51836;SDS011;38941;53.254;6.600;2023-10-19T10:45:30;10.00;;;4.72;;
51836;SDS011;38941;53.254;6.600;2023-10-19T10:47:31;4.65;;;3.10;;
51836;SDS011;38941;53.254;6.600;2023-10-19T10:49:34;6.70;;;2.70;;
51836;SDS011;38941;53.254;6.600;2023-10-19T10:51:48;4.15;;;3.13;;
51836;SDS011;38941;53.254;6.600;2023-10-19T10:53:50;3.58;;;3.03;;
51836;SDS011;38941;53.254;6.600;2023-10-19T10:55:52;10.52;;;6.28;;
51836;SDS011;38941;53.254;6.600;2023-10-19T10:57:54;9.27;;;5.22;;
51836;SDS011;38941;53.254;6.600;2023-10-19T11:00:05;5.60;;;3.55;;
51836;SDS011;38941;53.254;6.600;2023-10-19T11:02:18;12.63;;;5.75;;
51836;SDS011;38941;53.254;6.600;2023-10-19T11:04:20;9.30;;;5.57;;
51836;SDS011;38941;53.254;6.600;2023-10-19T11:06:21;4.15;;;3.42;;
51836;SDS011;38941;53.254;6.600;2023-10-19T11:08:24;8.27;;;3.65;;
51836;SDS011;38941;53.254;6.600;2023-10-19T11:10:31;5.80;;;3.47;;
51836;SDS011;38941;53.254;6.600;2023-10-19T11:12:33;8.85;;;6.05;;
51836;SDS011;38941;53.254;6.600;2023-10-19T11:14:33;10.63;;;6.40;;
51836;SDS011;38941;53.254;6.600;2023-10-19T11:16:34;5.78;;;3.55;;
51836;SDS011;38941;53.254;6.600;2023-10-19T11:18:36;9.48;;;6.18;;
51836;SDS011;38941;53.254;6.600;2023-10-19T11:20:40;7.22;;;4.10;;
51836;SDS011;38941;53.254;6.600;2023-10-19T11:22:52;6.25;;;5.03;;
51836;SDS011;38941;53.254;6.600;2023-10-19T11:24:56;24.52;;;11.60;;
51836;SDS011;38941;53.254;6.600;2023-10-19T11:27:25;29.00;;;12.25;;
51836;SDS011;38941;53.254;6.600;2023-10-19T11:29:29;10.35;;;7.63;;
51836;SDS011;38941;53.254;6.600;2023-10-19T11:31:30;9.15;;;6.80;;
51836;SDS011;38941;53.254;6.600;2023-10-19T11:33:40;10.95;;;7.35;;
51836;SDS011;38941;53.254;6.600;2023-10-19T11:35:43;13.10;;;6.82;;
51836;SDS011;38941;53.254;6.600;2023-10-19T11:37:45;10.55;;;7.70;;
51836;SDS011;38941;53.254;6.600;2023-10-19T11:39:47;10.55;;;7.10;;
51836;SDS011;38941;53.254;6.600;2023-10-19T11:41:50;12.93;;;7.75;;
51836;SDS011;38941;53.254;6.600;2023-10-19T11:43:50;11.70;;;7.60;;
51836;SDS011;38941;53.254;6.600;2023-10-19T11:45:51;10.85;;;7.53;;
51836;SDS011;38941;53.254;6.600;2023-10-19T11:47:53;11.27;;;7.60;;
51836;SDS011;38941;53.254;6.600;2023-10-19T11:49:55;8.70;;;5.97;;
51836;SDS011;38941;53.254;6.600;2023-10-19T11:51:56;11.50;;;6.95;;
51836;SDS011;38941;53.254;6.600;2023-10-19T11:53:57;9.55;;;5.55;;
51836;SDS011;38941;53.254;6.600;2023-10-19T11:55:58;13.00;;;6.95;;
51836;SDS011;38941;53.254;6.600;2023-10-19T11:58:01;8.63;;;5.53;;
51836;SDS011;38941;53.254;6.600;2023-10-19T12:00:03;9.32;;;4.80;;
51836;SDS011;38941;53.254;6.600;2023-10-19T12:02:14;11.00;;;5.72;;
51836;SDS011;38941;53.254;6.600;2023-10-19T12:04:18;8.63;;;5.25;;
51836;SDS011;38941;53.254;6.600;2023-10-19T12:06:19;10.57;;;5.57;;
51836;SDS011;38941;53.254;6.600;2023-10-19T12:08:20;10.50;;;6.05;;
51836;SDS011;38941;53.254;6.600;2023-10-19T12:10:21;9.93;;;5.25;;
51836;SDS011;38941;53.254;6.600;2023-10-19T12:12:28;4.30;;;3.20;;
51836;SDS011;38941;53.254;6.600;2023-10-19T12:14:29;10.70;;;5.25;;
51836;SDS011;38941;53.254;6.600;2023-10-19T12:16:29;10.02;;;3.97;;
51836;SDS011;38941;53.254;6.600;2023-10-19T12:18:32;11.57;;;5.00;;
51836;SDS011;38941;53.254;6.600;2023-10-19T12:20:33;19.88;;;7.93;;
51836;SDS011;38941;53.254;6.600;2023-10-19T12:22:35;11.55;;;4.60;;
51836;SDS011;38941;53.254;6.600;2023-10-19T12:24:38;17.23;;;8.85;;
51836;SDS011;38941;53.254;6.600;2023-10-19T12:26:39;13.90;;;5.72;;